createdAt,value
2019-05-07T00:03:59.178Z,12.80
2019-05-07T00:08:00.085Z,12.60
2019-05-07T00:12:02.729Z,12.60
2019-05-07T00:16:03.816Z,12.60
2019-05-07T00:20:05.664Z,12.70
2019-05-07T00:24:08.833Z,13.00
2019-05-07T00:28:12.038Z,13.30
2019-05-07T00:32:12.588Z,12.90
2019-05-07T00:36:15.392Z,12.90
2019-05-07T00:40:18.519Z,13.10
2019-05-07T00:44:21.975Z,13.10
2019-05-07T00:48:23.482Z,13.20
2019-05-07T00:52:24.618Z,13.30
2019-05-07T00:56:25.779Z,13.30
2019-05-07T01:00:27.172Z,13.30
2019-05-07T01:04:28.128Z,13.20
2019-05-07T01:08:28.977Z,13.30
2019-05-07T01:12:29.848Z,13.20
2019-05-07T01:16:32.801Z,13.20
2019-05-07T01:20:33.602Z,13.10
2019-05-07T01:24:34.663Z,13.20
2019-05-07T01:28:54.405Z,13.20
2019-05-07T01:33:00.092Z,12.50
2019-05-07T01:37:02.699Z,12.30
2019-05-07T01:41:03.934Z,12.00
2019-05-07T01:45:05.741Z,12.10
2019-05-07T01:49:06.633Z,12.30
2019-05-07T01:53:07.524Z,12.30
2019-05-07T01:57:08.520Z,12.70
2019-05-07T02:01:09.567Z,12.50
2019-05-07T02:05:15.489Z,12.60
2019-05-07T02:09:34.038Z,12.80
2019-05-07T02:13:35.131Z,13.00
2019-05-07T02:17:36.021Z,12.90
2019-05-07T02:21:36.973Z,13.10
2019-05-07T02:25:37.866Z,13.00
2019-05-07T02:29:38.836Z,13.10
2019-05-07T02:33:43.101Z,13.10
2019-05-07T02:37:50.988Z,12.90
2019-05-07T02:41:47.677Z,12.90
2019-05-07T02:46:19.811Z,13.00
2019-05-07T02:50:05.899Z,12.90
2019-05-07T02:54:08.873Z,12.90
2019-05-07T02:58:09.983Z,12.90
2019-05-07T03:02:13.723Z,12.80
2019-05-07T03:06:13.853Z,12.70
2019-05-07T03:10:14.907Z,12.70
2019-05-07T03:14:16.081Z,12.80
2019-05-07T03:18:19.150Z,12.70
2019-05-07T03:22:22.883Z,12.30
2019-05-07T03:26:24.452Z,12.40
2019-05-07T03:30:46.109Z,12.50
2019-05-07T03:34:49.169Z,12.40
2019-05-07T03:38:50.117Z,12.40
2019-05-07T03:42:53.507Z,12.40
2019-05-07T03:47:02.141Z,12.40
2019-05-07T03:50:58.635Z,12.40
2019-05-07T03:54:59.517Z,12.50
2019-05-07T03:59:03.457Z,12.00
2019-05-07T04:03:03.620Z,12.20
2019-05-07T04:07:04.929Z,12.30
2019-05-07T04:11:05.823Z,12.30
2019-05-07T04:15:07.036Z,12.40
2019-05-07T04:19:07.976Z,12.40
2019-05-07T04:23:08.879Z,12.50
2019-05-07T04:27:13.043Z,12.50
2019-05-07T04:31:14.258Z,12.60
2019-05-07T04:35:17.140Z,12.60
2019-05-07T04:39:18.127Z,12.50
2019-05-07T04:43:18.981Z,12.30
2019-05-07T04:47:36.956Z,12.50
2019-05-07T04:51:24.668Z,12.50
2019-05-07T04:55:25.546Z,12.50
2019-05-07T04:59:26.436Z,12.70
2019-05-07T05:03:28.536Z,13.00
2019-05-07T05:07:29.517Z,13.30
2019-05-07T05:11:33.303Z,13.30
2019-05-07T05:15:33.150Z,13.30
2019-05-07T05:19:34.111Z,13.40
2019-05-07T05:23:41.762Z,13.50
2019-05-07T05:27:43.057Z,13.40
2019-05-07T05:31:44.146Z,13.70
2019-05-07T05:35:45.017Z,13.80
2019-05-07T05:39:45.874Z,13.80
2019-05-07T05:43:48.755Z,14.10
2019-05-07T05:48:03.621Z,14.30
2019-05-07T05:51:57.064Z,14.50
2019-05-07T05:55:59.816Z,14.80
2019-05-07T06:00:05.855Z,15.00
2019-05-07T06:04:22.126Z,15.10
2019-05-07T06:08:25.549Z,15.20
2019-05-07T06:12:32.821Z,15.40
2019-05-07T06:16:38.559Z,15.70
2019-05-07T06:20:42.849Z,16.00
2019-05-07T06:24:56.535Z,16.00
2019-05-07T06:28:57.566Z,16.00
2019-05-07T06:32:58.504Z,16.20
2019-05-07T06:36:59.592Z,16.30
2019-05-07T06:41:02.718Z,16.60
2019-05-07T06:45:22.828Z,16.40
2019-05-07T06:49:24.074Z,17.10
2019-05-07T06:53:27.412Z,17.10
2019-05-07T06:57:29.876Z,17.10
2019-05-07T07:01:32.733Z,17.80
2019-05-07T07:05:35.659Z,17.90
2019-05-07T07:09:44.839Z,18.20
2019-05-07T07:13:45.800Z,18.80
2019-05-07T07:17:46.863Z,19.20
2019-05-07T07:21:48.021Z,19.00
2019-05-07T07:25:49.075Z,19.20
2019-05-07T07:30:07.220Z,19.40
2019-05-07T07:34:08.802Z,19.50
2019-05-07T07:38:28.371Z,19.50
2019-05-07T07:42:29.262Z,19.30
2019-05-07T07:46:30.189Z,19.90
2019-05-07T07:50:33.056Z,20.30
2019-05-07T07:54:33.822Z,20.30
2019-05-07T07:58:36.634Z,19.60
2019-05-07T08:02:39.548Z,19.20
2019-05-07T08:06:41.994Z,19.10
2019-05-07T08:10:43.228Z,19.60
2019-05-07T08:14:44.230Z,18.80
2019-05-07T08:18:46.590Z,17.80
2019-05-07T08:22:47.477Z,18.60
2019-05-07T08:26:48.395Z,18.10
2019-05-07T08:30:52.552Z,17.40
2019-05-07T08:35:04.686Z,16.60
2019-05-07T08:39:06.480Z,15.60
2019-05-07T08:43:07.876Z,16.40
2019-05-07T08:47:12.170Z,15.00
2019-05-07T08:51:13.368Z,15.50
2019-05-07T08:55:14.448Z,16.10
2019-05-07T08:59:15.646Z,16.00
2019-05-07T09:03:22.174Z,13.30
2019-05-07T09:07:22.033Z,13.70
2019-05-07T09:11:23.095Z,14.40
2019-05-07T09:15:24.064Z,14.70
2019-05-07T09:19:25.157Z,15.40
2019-05-07T09:23:26.321Z,15.90
2019-05-07T09:27:29.316Z,13.30
2019-05-07T09:31:52.566Z,13.10
2019-05-07T09:35:53.775Z,14.40
2019-05-07T09:39:54.850Z,14.90
2019-05-07T09:43:56.214Z,15.10
2019-05-07T09:47:57.066Z,16.40
2019-05-07T09:51:58.073Z,17.30
2019-05-07T09:55:59.085Z,17.00
2019-05-07T10:00:02.273Z,16.70
2019-05-07T10:04:03.343Z,15.40
2019-05-07T10:08:04.504Z,16.00
2019-05-07T10:12:07.373Z,16.80
2019-05-07T10:16:08.338Z,16.40
2019-05-07T10:20:19.361Z,16.40
2019-05-07T10:24:13.236Z,16.50
2019-05-07T10:28:14.263Z,16.50
2019-05-07T10:32:15.712Z,15.30
2019-05-07T10:36:16.677Z,15.90
2019-05-07T10:40:18.042Z,15.60
2019-05-07T10:44:22.798Z,16.10
2019-05-07T10:48:25.928Z,16.10
2019-05-07T10:52:27.122Z,17.20
2019-05-07T10:56:28.023Z,18.80
2019-05-07T11:00:29.060Z,18.60
2019-05-07T11:04:40.192Z,16.40
2019-05-07T11:08:33.086Z,16.00
2019-05-07T11:12:34.479Z,17.30
2019-05-07T11:16:37.358Z,18.20
2019-05-07T11:20:47.384Z,18.60
2019-05-07T11:24:42.698Z,20.10
2019-05-07T11:28:43.866Z,21.00
2019-05-07T11:32:44.982Z,21.30
2019-05-07T11:36:46.482Z,20.90
2019-05-07T11:40:47.526Z,20.10
2019-05-07T11:44:49.533Z,19.70
2019-05-07T11:48:52.533Z,19.80
2019-05-07T11:53:01.427Z,19.70
2019-05-07T11:57:02.759Z,19.20
2019-05-07T12:01:05.726Z,18.20
2019-05-07T12:05:06.818Z,18.50
2019-05-07T12:09:07.895Z,19.00
2019-05-07T12:13:08.883Z,18.20
2019-05-07T12:17:11.852Z,18.70
2019-05-07T12:21:20.773Z,19.50
2019-05-07T12:25:17.301Z,19.80
2019-05-07T12:29:18.206Z,19.80
2019-05-07T12:33:35.987Z,20.20
2019-05-07T12:37:37.051Z,20.60
2019-05-07T12:41:38.181Z,19.60
2019-05-07T12:45:41.984Z,20.20
2019-05-07T12:49:42.980Z,16.90
2019-05-07T12:53:48.373Z,18.10
2019-05-07T12:57:49.261Z,18.70
2019-05-07T13:01:52.165Z,20.10
2019-05-07T13:05:53.206Z,20.50
2019-05-07T13:09:54.417Z,20.30
2019-05-07T13:13:55.395Z,20.20
2019-05-07T13:17:56.258Z,20.10
2019-05-07T13:21:57.251Z,20.20
2019-05-07T13:25:58.233Z,21.10
2019-05-07T13:29:59.118Z,20.10
2019-05-07T13:34:02.942Z,20.90
2019-05-07T13:38:06.217Z,18.80
2019-05-07T13:42:09.165Z,17.60
2019-05-07T13:46:12.268Z,17.50
2019-05-07T13:50:13.411Z,18.50
2019-05-07T13:54:14.560Z,19.60
2019-05-07T13:58:15.691Z,17.60
2019-05-07T14:02:18.823Z,18.20
2019-05-07T14:06:37.946Z,18.90
2019-05-07T14:10:38.901Z,19.70
2019-05-07T14:14:39.766Z,18.80
2019-05-07T14:18:40.874Z,19.80
2019-05-07T14:22:42.501Z,20.10
2019-05-07T14:26:43.684Z,18.50
2019-05-07T14:30:44.662Z,18.40
2019-05-07T14:35:02.476Z,18.30
2019-05-07T14:39:06.390Z,19.10
2019-05-07T14:43:09.237Z,19.30
2019-05-07T14:47:10.184Z,16.50
2019-05-07T14:51:12.671Z,17.90
2019-05-07T14:55:14.182Z,18.00
2019-05-07T14:59:15.306Z,20.30
2019-05-07T15:03:17.332Z,21.70
2019-05-07T15:07:18.397Z,22.20
2019-05-07T15:11:19.933Z,21.00
2019-05-07T15:15:21.928Z,21.40
2019-05-07T15:19:23.336Z,22.10
2019-05-07T15:23:26.499Z,22.20
2019-05-07T15:27:27.761Z,22.10
2019-05-07T15:31:47.772Z,21.00
2019-05-07T15:35:48.795Z,19.70
2019-05-07T15:39:49.656Z,20.30
2019-05-07T15:43:52.161Z,20.30
2019-05-07T15:47:55.341Z,20.90
2019-05-07T15:51:58.233Z,21.00
2019-05-07T15:55:59.190Z,21.50
2019-05-07T16:00:04.897Z,20.90
2019-05-07T16:04:18.807Z,20.20
2019-05-07T16:08:12.370Z,21.00
2019-05-07T16:12:15.362Z,18.10
2019-05-07T16:16:16.351Z,20.40
2019-05-07T16:20:17.864Z,20.60
2019-05-07T16:24:18.957Z,19.90
2019-05-07T16:28:21.920Z,20.50
2019-05-07T16:32:24.236Z,19.60
2019-05-07T16:36:25.256Z,18.40
2019-05-07T16:40:26.235Z,18.40
2019-05-07T16:44:27.484Z,18.70
2019-05-07T16:48:28.584Z,19.70
2019-05-07T16:52:29.580Z,20.30
2019-05-07T16:56:30.591Z,20.30
2019-05-07T17:00:33.517Z,19.30
2019-05-07T17:04:34.484Z,18.20
2019-05-07T17:08:49.131Z,18.40
2019-05-07T17:12:52.250Z,17.80
2019-05-07T17:16:53.106Z,18.20
2019-05-07T17:20:56.262Z,18.00
2019-05-07T17:24:57.376Z,17.80
2019-05-07T17:28:58.381Z,17.50
2019-05-07T17:33:01.782Z,17.40
2019-05-07T17:37:02.346Z,17.50
2019-05-07T17:41:10.907Z,17.10
2019-05-07T17:45:06.531Z,17.00
2019-05-07T17:49:07.644Z,17.10
2019-05-07T17:53:08.909Z,16.90
2019-05-07T17:57:12.791Z,17.30
2019-05-07T18:01:13.239Z,17.10
2019-05-07T18:05:14.450Z,17.30
2019-05-07T18:09:15.330Z,17.10
2019-05-07T18:13:16.169Z,16.70
2019-05-07T18:17:34.290Z,16.70
2019-05-07T18:21:35.181Z,16.40
2019-05-07T18:25:38.395Z,16.20
2019-05-07T18:29:39.384Z,16.10
2019-05-07T18:33:48.426Z,15.90
2019-05-07T18:37:52.848Z,15.70
2019-05-07T18:41:54.356Z,15.40
2019-05-07T18:45:55.584Z,16.00
2019-05-07T18:49:56.489Z,16.10
2019-05-07T18:53:57.444Z,16.00
2019-05-07T18:57:58.498Z,15.80
2019-05-07T19:01:59.521Z,15.30
2019-05-07T19:06:02.646Z,14.70
2019-05-07T19:10:04.705Z,14.70
2019-05-07T19:14:05.994Z,15.10
2019-05-07T19:18:07.284Z,15.10
2019-05-07T19:22:08.133Z,15.00
2019-05-07T19:26:09.545Z,15.10
2019-05-07T19:30:12.721Z,14.90
2019-05-07T19:34:14.252Z,14.70
2019-05-07T19:38:15.146Z,14.60
2019-05-07T19:42:16.053Z,14.40
2019-05-07T19:46:17.118Z,14.10
2019-05-07T19:50:18.278Z,14.00
2019-05-07T19:54:19.180Z,14.10
2019-05-07T19:58:22.828Z,13.90
2019-05-07T20:02:43.632Z,13.90
2019-05-07T20:06:44.804Z,13.50
2019-05-07T20:10:51.950Z,13.50
2019-05-07T20:14:53.110Z,13.40
2019-05-07T20:18:54.089Z,13.20
2019-05-07T20:22:55.073Z,13.20
2019-05-07T20:26:56.010Z,13.00
2019-05-07T20:30:56.992Z,12.90
2019-05-07T20:34:57.885Z,12.80
2019-05-07T20:38:58.759Z,12.70
2019-05-07T20:43:01.800Z,12.40
2019-05-07T20:47:02.779Z,12.20
2019-05-07T20:51:03.798Z,11.70
2019-05-07T20:55:10.142Z,12.10
2019-05-07T20:59:12.462Z,12.00
2019-05-07T21:03:19.300Z,12.00
2019-05-07T21:07:22.130Z,11.90
2019-05-07T21:11:23.057Z,11.90
2019-05-07T21:15:23.939Z,11.90
2019-05-07T21:19:24.873Z,11.80
2019-05-07T21:23:25.744Z,11.60
2019-05-07T21:27:26.691Z,11.90
2019-05-07T21:31:27.663Z,11.90
2019-05-07T21:35:28.584Z,11.80
2019-05-07T21:39:29.477Z,11.60
2019-05-07T21:43:32.531Z,11.50
2019-05-07T21:47:33.377Z,11.30
2019-05-07T21:51:34.382Z,11.40
2019-05-07T21:55:41.806Z,11.30
2019-05-07T21:59:43.272Z,11.10
2019-05-07T22:03:46.544Z,11.00
2019-05-07T22:07:47.513Z,11.30
2019-05-07T22:11:48.503Z,11.40
2019-05-07T22:15:49.560Z,11.50
2019-05-07T22:19:52.411Z,11.60
2019-05-07T22:23:53.253Z,11.50
2019-05-07T22:27:54.135Z,11.60
2019-05-07T22:31:56.931Z,11.50
2019-05-07T22:35:57.907Z,11.40
2019-05-07T22:39:58.812Z,11.40
2019-05-07T22:43:59.711Z,11.40
2019-05-07T22:48:02.700Z,11.50
2019-05-07T22:52:03.476Z,11.20
2019-05-07T22:56:04.461Z,11.30
2019-05-07T23:00:06.945Z,10.70
2019-05-07T23:04:07.843Z,10.50
2019-05-07T23:08:08.717Z,11.00
2019-05-07T23:12:09.902Z,11.30
2019-05-07T23:16:12.545Z,11.30
2019-05-07T23:20:13.785Z,11.20
2019-05-07T23:24:14.906Z,11.40
2019-05-07T23:28:15.772Z,11.30
2019-05-07T23:32:16.653Z,11.50
2019-05-07T23:36:17.592Z,11.50
2019-05-07T23:40:22.802Z,11.30
2019-05-07T23:44:23.630Z,11.30
2019-05-07T23:48:24.511Z,11.20
2019-05-07T23:52:25.375Z,11.10
2019-05-07T23:56:26.418Z,11.20
